Time;durP1;ratioP1;P1;durP2;ratioP2;P2;SDS_P1;SDS_P2;PMS_P1;PMS_P2;Temp;Humidity;BMP_temperature;BMP_pressure;BME280_temperature;BME280_humidity;BME280_pressure;Samples;Min_cycle;Max_cycle;Signal;HPM_P1;HPM_P2
2022/01/10 00:00:48;;;;;;;13.60;7.20;;;3.40;96.80;;;;;;5089875;28;20428;-75
2022/01/10 00:03:15;;;;;;;11.97;7.33;;;3.40;96.70;;;;;;5090267;28;20474;-73
2022/01/10 00:05:40;;;;;;;11.10;6.83;;;3.50;96.70;;;;;;5089914;28;20559;-72
2022/01/10 00:08:07;;;;;;;11.60;7.03;;;3.50;96.60;;;;;;5093191;28;20504;-73
2022/01/10 00:10:33;;;;;;;10.83;6.97;;;3.60;96.40;;;;;;5092971;28;20517;-75
2022/01/10 00:12:59;;;;;;;13.73;7.17;;;3.60;96.20;;;;;;5094939;28;20421;-74
2022/01/10 00:15:25;;;;;;;14.33;7.20;;;3.70;96.00;;;;;;5094566;28;20510;-74
2022/01/10 00:17:51;;;;;;;9.67;5.80;;;3.60;95.70;;;;;;5094114;28;20657;-74
2022/01/10 00:20:19;;;;;;;12.60;7.40;;;3.60;95.50;;;;;;5095337;28;20482;-74
2022/01/10 00:22:47;;;;;;;11.30;7.00;;;3.60;95.50;;;;;;5096232;28;20191;-74
2022/01/10 00:25:15;;;;;;;14.30;6.90;;;3.60;95.30;;;;;;5095598;28;20475;-77
2022/01/10 00:27:41;;;;;;;13.17;7.10;;;3.60;95.30;;;;;;5096052;28;20424;-73
2022/01/10 00:30:10;;;;;;;9.77;6.83;;;3.50;95.20;;;;;;5096557;28;20464;-75
2022/01/10 00:32:36;;;;;;;10.57;6.70;;;3.50;95.30;;;;;;5096319;28;20428;-74
2022/01/10 00:35:02;;;;;;;14.53;7.47;;;3.50;95.30;;;;;;5099784;28;20531;-76
2022/01/10 00:37:28;;;;;;;14.27;6.63;;;3.40;95.40;;;;;;5098767;28;20455;-74
2022/01/10 00:39:54;;;;;;;12.33;7.47;;;3.30;95.50;;;;;;5093629;28;20803;-74
2022/01/10 00:42:19;;;;;;;13.30;8.50;;;3.30;95.60;;;;;;5093174;28;20225;-74
2022/01/10 00:44:51;;;;;;;11.63;8.07;;;3.30;95.70;;;;;;5091781;28;20662;-74
2022/01/10 00:47:18;;;;;;;12.02;8.00;;;3.30;95.80;;;;;;5093020;28;20186;-76
2022/01/10 00:49:45;;;;;;;12.43;7.93;;;3.30;95.90;;;;;;5092284;28;20190;-74
2022/01/10 00:52:11;;;;;;;15.97;8.33;;;3.30;95.90;;;;;;5092660;28;20848;-73
2022/01/10 00:54:38;;;;;;;14.10;7.28;;;3.30;96.00;;;;;;5097935;28;20440;-74
2022/01/10 00:57:04;;;;;;;15.23;7.57;;;3.30;96.20;;;;;;5098776;28;20198;-73
2022/01/10 00:59:30;;;;;;;13.90;7.60;;;3.40;96.20;;;;;;5098071;28;20200;-73
2022/01/10 01:01:56;;;;;;;15.60;7.80;;;3.40;96.10;;;;;;5093105;28;20559;-74
2022/01/10 01:04:22;;;;;;;19.10;8.93;;;3.40;96.00;;;;;;5098530;28;20207;-73
2022/01/10 01:06:48;;;;;;;11.83;7.83;;;3.40;96.00;;;;;;5102572;28;20541;-73
2022/01/10 01:09:17;;;;;;;17.00;6.90;;;3.30;96.10;;;;;;5094184;28;20197;-73
2022/01/10 01:14:22;;;;;;;18.03;7.30;;;3.40;96.30;;;;;;5093206;28;20456;-72
2022/01/10 01:16:57;;;;;;;14.73;7.70;;;3.50;96.40;;;;;;5093498;28;20515;-72
2022/01/10 01:24:33;;;;;;;12.50;7.43;;;3.50;96.30;;;;;;5092677;28;20206;-73
2022/01/10 01:26:59;;;;;;;12.80;6.70;;;3.50;96.20;;;;;;5091346;28;20982;-74
2022/01/10 01:29:29;;;;;;;11.57;5.87;;;3.60;96.00;;;;;;5094918;28;20436;-73
2022/01/10 01:31:56;;;;;;;15.70;7.23;;;3.60;95.90;;;;;;5090695;28;20432;-75
2022/01/10 01:34:23;;;;;;;15.60;7.80;;;3.50;96.00;;;;;;5096903;28;20421;-74
2022/01/10 01:36:53;;;;;;;13.73;7.40;;;3.50;96.00;;;;;;5094103;28;20183;-73
2022/01/10 01:39:22;;;;;;;16.07;7.33;;;3.50;96.20;;;;;;5092942;28;20182;-74
2022/01/10 01:41:50;;;;;;;15.07;6.77;;;3.50;96.30;;;;;;5092810;28;20429;-73
2022/01/10 01:44:16;;;;;;;10.40;7.07;;;3.60;96.20;;;;;;5088527;28;20479;-73
2022/01/10 01:46:43;;;;;;;13.80;6.93;;;3.60;96.10;;;;;;5090857;28;20477;-73
2022/01/10 01:49:10;;;;;;;13.87;7.27;;;3.60;96.00;;;;;;5092646;28;20266;-73
2022/01/10 01:51:36;;;;;;;10.93;6.37;;;3.60;96.00;;;;;;5092659;28;20512;-74
2022/01/10 01:54:02;;;;;;;11.73;6.73;;;3.60;96.00;;;;;;5093186;28;20475;-74
2022/01/10 01:56:29;;;;;;;11.53;6.23;;;3.60;95.90;;;;;;5093047;28;20425;-74
2022/01/10 01:58:55;;;;;;;9.17;4.90;;;3.60;96.00;;;;;;5094743;28;20413;-73
2022/01/10 02:01:23;;;;;;;9.40;4.93;;;3.70;96.10;;;;;;5092688;28;20422;-73
2022/01/10 02:03:50;;;;;;;7.87;4.60;;;3.70;95.90;;;;;;5092038;28;20413;-72
2022/01/10 02:06:16;;;;;;;8.90;4.83;;;3.70;95.80;;;;;;5091641;28;20505;-74
2022/01/10 02:08:43;;;;;;;7.60;4.13;;;3.70;95.60;;;;;;5098222;28;20967;-74
2022/01/10 02:11:11;;;;;;;8.17;4.40;;;3.60;95.60;;;;;;5091717;28;20425;-72
2022/01/10 02:13:39;;;;;;;9.07;4.30;;;3.70;95.60;;;;;;5092202;28;20516;-75
2022/01/10 02:16:06;;;;;;;6.50;4.30;;;3.70;95.50;;;;;;5092368;28;20270;-74
2022/01/10 02:18:33;;;;;;;6.70;3.97;;;3.70;95.40;;;;;;5091279;28;20481;-74
2022/01/10 02:21:01;;;;;;;9.40;5.57;;;3.60;95.30;;;;;;5093502;28;20425;-74
2022/01/10 02:23:28;;;;;;;7.57;3.40;;;3.60;95.20;;;;;;5093968;28;20480;-74
2022/01/10 02:25:54;;;;;;;8.07;4.23;;;3.60;95.00;;;;;;5092347;28;20472;-73
2022/01/10 02:28:21;;;;;;;11.73;4.80;;;3.60;95.00;;;;;;5092584;28;20432;-73
2022/01/10 02:30:47;;;;;;;10.27;4.80;;;3.60;95.00;;;;;;5091750;28;20899;-73
2022/01/10 02:33:13;;;;;;;13.97;6.07;;;3.50;95.00;;;;;;5090593;28;20426;-74
2022/01/10 02:35:48;;;;;;;10.60;6.03;;;3.50;95.10;;;;;;5091662;28;20222;-73
2022/01/10 02:38:14;;;;;;;9.77;5.77;;;3.40;95.30;;;;;;5090438;28;20456;-74
2022/01/10 02:40:40;;;;;;;13.63;4.60;;;3.50;95.50;;;;;;5088877;28;20515;-75
2022/01/10 02:43:07;;;;;;;7.40;4.47;;;3.50;95.60;;;;;;5091161;28;20243;-75
2022/01/10 02:45:33;;;;;;;8.90;4.47;;;3.60;95.70;;;;;;5091949;28;20473;-75
2022/01/10 02:47:59;;;;;;;7.70;4.40;;;3.60;95.70;;;;;;5093885;28;20495;-74
2022/01/10 02:50:25;;;;;;;9.60;4.15;;;3.60;95.70;;;;;;5093161;28;20583;-73
2022/01/10 02:52:51;;;;;;;12.03;4.73;;;3.60;95.70;;;;;;5094377;28;20175;-75
2022/01/10 02:55:17;;;;;;;7.90;5.00;;;3.60;95.70;;;;;;5094670;28;20225;-76
2022/01/10 02:57:43;;;;;;;10.47;5.13;;;3.60;95.80;;;;;;5090545;28;20269;-74
2022/01/10 03:00:15;;;;;;;10.87;4.93;;;3.60;95.90;;;;;;5090350;28;20449;-74
2022/01/10 03:02:42;;;;;;;8.43;5.13;;;3.70;95.90;;;;;;5091104;28;20436;-74
2022/01/10 03:05:09;;;;;;;13.33;7.40;;;3.70;95.90;;;;;;5091399;28;20787;-73
2022/01/10 03:07:35;;;;;;;14.00;6.77;;;3.70;95.80;;;;;;5093747;28;20968;-75
2022/01/10 03:10:02;;;;;;;12.23;6.60;;;3.70;95.60;;;;;;5095859;28;20413;-74
2022/01/10 03:12:30;;;;;;;13.00;6.73;;;3.60;95.60;;;;;;5097307;28;20494;-72
2022/01/10 03:14:59;;;;;;;15.40;6.47;;;3.60;95.60;;;;;;5090191;28;20470;-72
2022/01/10 03:17:26;;;;;;;13.03;6.83;;;3.50;95.80;;;;;;5090628;28;20938;-73
2022/01/10 03:19:51;;;;;;;13.27;5.57;;;3.50;95.90;;;;;;5090353;28;20432;-73
2022/01/10 03:22:17;;;;;;;11.23;6.77;;;3.50;95.80;;;;;;5095570;28;20417;-73
2022/01/10 03:24:43;;;;;;;11.00;6.43;;;3.50;95.90;;;;;;5101711;28;20203;-73
2022/01/10 03:27:09;;;;;;;16.50;6.80;;;3.50;95.90;;;;;;5093128;28;20494;-74
2022/01/10 03:29:35;;;;;;;9.37;6.17;;;3.40;95.90;;;;;;5090376;28;20672;-74
2022/01/10 03:32:02;;;;;;;12.03;6.60;;;3.40;96.00;;;;;;5090115;28;20417;-74
2022/01/10 03:34:28;;;;;;;15.70;6.73;;;3.40;96.10;;;;;;5089057;28;20468;-74
2022/01/10 03:36:55;;;;;;;9.60;5.53;;;3.50;96.10;;;;;;5083867;28;20421;-75
2022/01/10 03:39:21;;;;;;;9.02;5.82;;;3.50;96.10;;;;;;5086822;28;20453;-73
2022/01/10 03:41:47;;;;;;;8.43;6.15;;;3.50;96.00;;;;;;5087598;28;20191;-74
2022/01/10 03:44:13;;;;;;;11.10;6.13;;;3.50;96.00;;;;;;5090738;28;20206;-74
2022/01/10 03:46:39;;;;;;;11.90;5.60;;;3.50;96.10;;;;;;5090455;28;20701;-73
2022/01/10 03:49:06;;;;;;;9.70;6.00;;;3.50;96.10;;;;;;5093618;28;20413;-73
2022/01/10 03:51:32;;;;;;;10.50;5.73;;;3.50;96.00;;;;;;5101012;28;20444;-74
2022/01/10 03:53:58;;;;;;;11.57;6.40;;;3.60;95.90;;;;;;5101734;28;20453;-74
2022/01/10 03:56:27;;;;;;;11.17;5.57;;;3.60;95.70;;;;;;5092679;28;20417;-74
2022/01/10 03:58:53;;;;;;;15.73;5.90;;;3.60;95.50;;;;;;5082849;28;20433;-73
2022/01/10 04:01:19;;;;;;;9.67;5.37;;;3.50;95.40;;;;;;5090854;28;20433;-72
2022/01/10 04:03:45;;;;;;;9.47;5.20;;;3.50;95.50;;;;;;5090837;28;20432;-75
2022/01/10 04:06:11;;;;;;;17.43;6.80;;;3.60;95.50;;;;;;5090045;28;20802;-73
2022/01/10 04:08:37;;;;;;;11.90;5.40;;;3.60;95.40;;;;;;5089141;28;20191;-74
2022/01/10 04:11:04;;;;;;;10.80;6.63;;;3.70;95.40;;;;;;5089842;28;20688;-74
2022/01/10 04:13:29;;;;;;;12.37;6.20;;;3.70;95.30;;;;;;5090509;28;20416;-74
2022/01/10 04:15:55;;;;;;;11.70;6.87;;;3.70;95.20;;;;;;5089866;28;20437;-73
2022/01/10 04:18:21;;;;;;;17.60;7.57;;;3.70;95.20;;;;;;5090026;28;20189;-74
2022/01/10 04:20:47;;;;;;;12.43;6.00;;;3.70;95.30;;;;;;5090522;28;20187;-74
2022/01/10 04:23:15;;;;;;;12.93;6.97;;;3.70;95.30;;;;;;5091155;28;20504;-72
2022/01/10 04:25:41;;;;;;;13.90;7.67;;;3.60;95.10;;;;;;5090790;28;20473;-73
2022/01/10 04:28:07;;;;;;;16.87;7.27;;;3.70;95.20;;;;;;5091732;28;20421;-73
2022/01/10 04:30:34;;;;;;;15.50;7.10;;;3.70;95.20;;;;;;5091563;28;20417;-72
2022/01/10 04:33:01;;;;;;;16.92;6.10;;;3.80;95.10;;;;;;5084732;28;20507;-73
2022/01/10 04:35:30;;;;;;;16.47;6.30;;;3.80;94.80;;;;;;5091215;28;20195;-74
2022/01/10 04:37:56;;;;;;;18.02;7.10;;;3.80;94.60;;;;;;5084361;28;20413;-74
2022/01/10 04:40:23;;;;;;;15.03;6.60;;;3.80;94.50;;;;;;5093400;28;20190;-74
2022/01/10 04:42:49;;;;;;;13.97;6.60;;;3.80;94.40;;;;;;5089557;28;20840;-72
2022/01/10 04:45:15;;;;;;;13.07;6.70;;;3.90;94.20;;;;;;5089231;28;20474;-74
2022/01/10 04:47:41;;;;;;;11.80;6.53;;;3.90;94.20;;;;;;5088717;28;20429;-74
2022/01/10 04:52:36;;;;;;;16.33;7.70;;;3.80;94.10;;;;;;5090497;28;20175;-73
2022/01/10 04:55:03;;;;;;;10.83;7.03;;;3.80;94.20;;;;;;5092862;28;20485;-74
2022/01/10 04:57:28;;;;;;;13.67;7.80;;;3.90;94.10;;;;;;5092798;28;20179;-75
2022/01/10 04:59:54;;;;;;;16.50;8.20;;;3.90;94.00;;;;;;5093308;28;20752;-73
2022/01/10 05:02:20;;;;;;;13.23;7.60;;;3.90;94.00;;;;;;5096282;28;20559;-73
2022/01/10 05:04:46;;;;;;;15.87;7.87;;;3.90;94.00;;;;;;5095689;28;20440;-73
2022/01/10 05:07:12;;;;;;;16.03;7.77;;;3.90;94.10;;;;;;5098102;28;20207;-73
2022/01/10 05:09:37;;;;;;;19.63;7.70;;;3.90;94.00;;;;;;5093369;28;20565;-74
2022/01/10 05:12:03;;;;;;;20.03;8.37;;;3.90;93.90;;;;;;5092598;28;20247;-73
2022/01/10 05:14:30;;;;;;;20.27;8.07;;;3.80;93.90;;;;;;5093701;28;20234;-74
2022/01/10 05:16:55;;;;;;;20.70;8.27;;;3.80;94.10;;;;;;5092941;28;20421;-75
2022/01/10 05:19:21;;;;;;;22.37;8.20;;;3.70;94.30;;;;;;5093234;28;20961;-73
2022/01/10 05:21:47;;;;;;;19.03;9.03;;;3.80;94.50;;;;;;5092281;28;20183;-74
2022/01/10 05:24:13;;;;;;;17.10;8.17;;;3.80;94.60;;;;;;5093419;28;20246;-73
2022/01/10 05:26:39;;;;;;;17.97;8.17;;;3.80;94.60;;;;;;5091902;28;20711;-75
2022/01/10 05:29:04;;;;;;;23.23;8.47;;;3.80;94.50;;;;;;5101563;28;20425;-73
2022/01/10 05:31:33;;;;;;;16.67;8.40;;;3.80;94.50;;;;;;5092841;28;20478;-74
2022/01/10 05:34:00;;;;;;;18.70;9.60;;;3.80;94.40;;;;;;5093130;28;20237;-75
2022/01/10 05:36:25;;;;;;;16.50;8.20;;;3.70;94.40;;;;;;5091031;28;20418;-74
2022/01/10 05:38:51;;;;;;;20.73;8.90;;;3.80;94.60;;;;;;5092722;28;20478;-74
2022/01/10 05:41:17;;;;;;;22.00;9.57;;;3.80;94.60;;;;;;5093313;28;20277;-74
2022/01/10 05:43:43;;;;;;;16.00;8.10;;;3.80;94.50;;;;;;5098730;28;20412;-74
2022/01/10 05:46:12;;;;;;;19.17;9.17;;;3.80;94.60;;;;;;5097983;28;20744;-73
2022/01/10 05:48:40;;;;;;;25.93;9.23;;;3.90;94.70;;;;;;5095765;28;20194;-73
2022/01/10 05:51:07;;;;;;;15.70;9.10;;;4.00;94.60;;;;;;5095671;28;20429;-74
2022/01/10 05:53:33;;;;;;;19.67;10.20;;;3.90;94.50;;;;;;5095305;28;20417;-74
2022/01/10 05:55:59;;;;;;;19.40;9.20;;;4.00;94.60;;;;;;5093624;28;20578;-74
2022/01/10 05:58:27;;;;;;;25.93;10.90;;;4.00;94.70;;;;;;5091663;28;20512;-72
2022/01/10 06:00:53;;;;;;;24.80;9.20;;;4.00;94.60;;;;;;5082119;28;20436;-74
2022/01/10 06:03:19;;;;;;;20.27;8.93;;;4.00;94.50;;;;;;5091403;28;20915;-73
2022/01/10 06:05:45;;;;;;;21.77;9.13;;;4.00;94.60;;;;;;5092020;28;20218;-74
2022/01/10 06:08:11;;;;;;;22.03;10.67;;;4.00;94.40;;;;;;5091793;28;20176;-73
2022/01/10 06:10:37;;;;;;;25.87;10.13;;;3.90;94.30;;;;;;5090512;28;20589;-76
2022/01/10 06:13:03;;;;;;;20.93;8.60;;;3.90;94.30;;;;;;5091887;28;20471;-75
2022/01/10 06:15:28;;;;;;;23.50;10.17;;;3.90;94.40;;;;;;5097561;28;20441;-73
2022/01/10 06:17:54;;;;;;;19.63;9.90;;;3.90;94.50;;;;;;5094109;28;20277;-74
2022/01/10 06:20:20;;;;;;;20.47;10.70;;;3.90;94.50;;;;;;5086728;28;20179;-78
2022/01/10 06:22:46;;;;;;;27.47;11.23;;;3.90;94.60;;;;;;5100787;28;20492;-74
2022/01/10 06:25:15;;;;;;;25.57;11.40;;;3.90;94.60;;;;;;5092180;28;20942;-76
2022/01/10 06:27:41;;;;;;;28.07;12.17;;;3.80;94.40;;;;;;5090160;28;20524;-75
2022/01/10 06:30:07;;;;;;;23.97;11.80;;;3.90;94.60;;;;;;5091990;28;20429;-76
2022/01/10 06:32:34;;;;;;;22.90;12.10;;;3.90;94.60;;;;;;5091140;28;20424;-74
2022/01/10 06:35:00;;;;;;;27.30;12.23;;;3.90;94.60;;;;;;5091218;28;20445;-77
2022/01/10 06:37:26;;;;;;;23.60;11.40;;;3.90;94.50;;;;;;5091346;28;20520;-76
2022/01/10 06:39:52;;;;;;;29.63;12.17;;;3.90;94.60;;;;;;5086858;28;20436;-74
2022/01/10 06:42:19;;;;;;;32.55;12.43;;;3.80;94.60;;;;;;5090904;28;20418;-74
2022/01/10 06:44:45;;;;;;;25.20;11.33;;;3.90;94.70;;;;;;5091341;28;20290;-75
2022/01/10 06:47:11;;;;;;;21.70;10.90;;;3.80;94.70;;;;;;5090854;28;20994;-76
2022/01/10 06:49:37;;;;;;;30.50;12.30;;;3.80;94.70;;;;;;5089633;28;20424;-75
2022/01/10 06:52:03;;;;;;;27.50;11.57;;;3.70;94.90;;;;;;5089118;28;20837;-76
2022/01/10 06:54:29;;;;;;;22.80;11.23;;;3.50;95.10;;;;;;5091104;28;20275;-74
2022/01/10 06:56:58;;;;;;;30.53;13.03;;;3.40;95.50;;;;;;5090765;28;20417;-76
2022/01/10 06:59:27;;;;;;;27.40;11.50;;;3.30;95.90;;;;;;5090772;28;20179;-73
2022/01/10 07:01:58;;;;;;;27.42;12.73;;;3.30;96.00;;;;;;5087463;28;20536;-75
2022/01/10 07:04:25;;;;;;;36.10;12.98;;;3.20;96.30;;;;;;5090963;28;20206;-76
2022/01/10 07:06:52;;;;;;;29.95;11.38;;;3.20;96.50;;;;;;5090480;28;20198;-75
2022/01/10 07:09:18;;;;;;;29.98;14.63;;;3.20;96.70;;;;;;5090915;28;20179;-76
2022/01/10 07:11:44;;;;;;;24.70;11.53;;;3.30;96.70;;;;;;5089485;28;20252;-75
2022/01/10 07:14:12;;;;;;;28.80;11.63;;;3.30;96.60;;;;;;5091070;28;20924;-76
2022/01/10 07:16:38;;;;;;;31.93;12.87;;;3.40;96.60;;;;;;5094505;28;20516;-76
2022/01/10 07:19:05;;;;;;;29.10;12.60;;;3.40;96.50;;;;;;5090893;28;20529;-76
2022/01/10 07:21:31;;;;;;;33.83;14.63;;;3.40;96.50;;;;;;5084470;28;20670;-76
2022/01/10 07:23:57;;;;;;;34.53;13.60;;;3.40;96.50;;;;;;5090677;28;20467;-75
2022/01/10 07:26:22;;;;;;;40.40;14.33;;;3.40;96.40;;;;;;5090639;28;20540;-76
2022/01/10 07:28:49;;;;;;;34.07;14.80;;;3.40;96.50;;;;;;5090986;28;20183;-75
2022/01/10 07:31:15;;;;;;;33.57;14.13;;;3.50;96.40;;;;;;5090514;28;20420;-76
2022/01/10 07:33:41;;;;;;;32.43;12.83;;;3.50;96.40;;;;;;5091036;28;20516;-76
2022/01/10 07:36:07;;;;;;;24.80;13.10;;;3.50;96.20;;;;;;5098595;28;20472;-74
2022/01/10 07:38:35;;;;;;;30.50;14.00;;;3.50;95.80;;;;;;5090613;28;20229;-75
2022/01/10 07:41:06;;;;;;;31.98;13.45;;;3.50;95.50;;;;;;5090211;28;20593;-75
2022/01/10 07:43:33;;;;;;;32.73;12.93;;;3.50;95.50;;;;;;5090024;28;20774;-75
2022/01/10 07:45:59;;;;;;;30.63;12.00;;;3.50;95.60;;;;;;5090277;28;20472;-75
2022/01/10 07:48:27;;;;;;;30.57;12.90;;;3.50;95.50;;;;;;5090682;28;20512;-76
2022/01/10 07:50:53;;;;;;;31.73;14.40;;;3.50;95.50;;;;;;5080757;28;20448;-74
2022/01/10 07:53:19;;;;;;;30.10;13.20;;;3.40;95.50;;;;;;5090547;28;20911;-74
2022/01/10 07:55:45;;;;;;;40.10;14.03;;;3.50;95.60;;;;;;5090013;28;20211;-75
2022/01/10 07:58:11;;;;;;;34.60;14.07;;;3.50;95.60;;;;;;5088753;28;20179;-75
2022/01/10 08:00:37;;;;;;;26.27;12.73;;;3.50;95.60;;;;;;5090374;28;20241;-76
2022/01/10 08:03:04;;;;;;;32.40;12.83;;;3.50;95.50;;;;;;5090700;28;20429;-76
2022/01/10 08:05:30;;;;;;;24.93;12.53;;;3.40;95.30;;;;;;5088179;28;20568;-75
2022/01/10 08:07:56;;;;;;;41.00;14.90;;;3.40;95.50;;;;;;5090622;28;20504;-75
2022/01/10 08:10:22;;;;;;;28.73;13.93;;;3.40;95.60;;;;;;5090173;28;20421;-75
2022/01/10 08:12:47;;;;;;;35.40;15.00;;;3.40;95.80;;;;;;5090141;28;20417;-76
2022/01/10 08:15:13;;;;;;;32.90;15.37;;;3.30;95.60;;;;;;5090016;28;20441;-76
2022/01/10 08:17:41;;;;;;;35.73;14.37;;;3.30;95.80;;;;;;5090641;28;20189;-75
2022/01/10 08:20:07;;;;;;;37.17;15.30;;;3.30;95.90;;;;;;5084273;28;20420;-75
2022/01/10 08:22:33;;;;;;;37.87;15.40;;;3.40;96.10;;;;;;5089007;28;20276;-75
2022/01/10 08:24:59;;;;;;;33.40;14.70;;;3.50;96.00;;;;;;5092218;28;20490;-76
2022/01/10 08:27:25;;;;;;;41.13;17.27;;;3.50;95.90;;;;;;5089124;28;20418;-76
2022/01/10 08:29:50;;;;;;;35.67;14.90;;;3.50;95.50;;;;;;5091617;28;20206;-75
2022/01/10 08:32:17;;;;;;;31.13;13.77;;;3.40;95.20;;;;;;5094887;28;20179;-75
2022/01/10 08:34:43;;;;;;;36.63;15.00;;;3.40;95.20;;;;;;5094261;28;20244;-76
2022/01/10 08:37:09;;;;;;;37.80;15.50;;;3.30;95.20;;;;;;5093888;28;20589;-77
2022/01/10 08:39:35;;;;;;;33.70;14.87;;;3.40;95.50;;;;;;5088200;28;20689;-74
2022/01/10 08:42:01;;;;;;;32.03;15.10;;;3.50;95.80;;;;;;5094420;28;20413;-76
2022/01/10 08:44:27;;;;;;;33.50;15.70;;;3.60;95.50;;;;;;5092866;28;20872;-75
2022/01/10 08:46:53;;;;;;;32.40;15.10;;;3.80;95.40;;;;;;5091172;28;21097;-75
2022/01/10 08:49:19;;;;;;;31.43;14.60;;;3.90;95.00;;;;;;5093940;28;20171;-76
2022/01/10 08:51:45;;;;;;;39.63;17.57;;;4.00;94.60;;;;;;5092998;28;20443;-75
2022/01/10 08:54:11;;;;;;;31.87;16.30;;;4.00;94.30;;;;;;5096006;28;20215;-76
2022/01/10 08:56:37;;;;;;;31.77;13.67;;;4.10;94.20;;;;;;5097333;28;20992;-76
2022/01/10 08:59:04;;;;;;;30.17;13.50;;;4.00;93.50;;;;;;5094472;28;20426;-77
2022/01/10 09:01:31;;;;;;;32.07;14.03;;;3.90;93.00;;;;;;5092684;28;20413;-76
2022/01/10 09:03:57;;;;;;;35.27;14.80;;;3.80;93.10;;;;;;5093647;28;20436;-75
2022/01/10 09:06:23;;;;;;;34.90;15.80;;;3.90;93.50;;;;;;5093539;28;21155;-76
2022/01/10 09:08:50;;;;;;;33.13;14.87;;;3.90;93.60;;;;;;5093890;28;20409;-76
2022/01/10 09:11:16;;;;;;;38.60;14.80;;;4.00;93.80;;;;;;5094565;28;20186;-76
2022/01/10 09:13:43;;;;;;;35.70;14.40;;;4.00;93.60;;;;;;5095507;28;20417;-75
2022/01/10 09:16:09;;;;;;;34.47;15.53;;;3.90;93.80;;;;;;5093864;28;20482;-75
2022/01/10 09:18:35;;;;;;;36.10;15.60;;;3.90;94.20;;;;;;5095807;28;20446;-75
2022/01/10 09:21:01;;;;;;;37.73;16.13;;;4.00;94.40;;;;;;5094230;28;20429;-76
2022/01/10 09:23:27;;;;;;;34.47;14.87;;;4.00;94.30;;;;;;5094063;28;20425;-74
2022/01/10 09:25:53;;;;;;;36.60;14.57;;;4.00;94.20;;;;;;5094892;28;20263;-76
2022/01/10 09:28:20;;;;;;;34.57;14.60;;;3.90;94.00;;;;;;5094136;28;20409;-75
2022/01/10 09:30:47;;;;;;;36.60;14.33;;;4.00;94.00;;;;;;5092912;28;20427;-75
2022/01/10 09:33:13;;;;;;;37.47;15.63;;;3.90;94.00;;;;;;5094472;28;20417;-75
2022/01/10 09:35:40;;;;;;;37.67;15.40;;;3.90;94.00;;;;;;5093763;28;20528;-76
2022/01/10 09:38:06;;;;;;;32.70;14.70;;;3.90;94.10;;;;;;5100375;28;20425;-76
2022/01/10 09:40:32;;;;;;;44.00;17.13;;;3.90;94.10;;;;;;5092879;28;20425;-76
2022/01/10 09:42:58;;;;;;;37.10;16.10;;;4.00;94.20;;;;;;5092452;28;20461;-75
2022/01/10 09:45:23;;;;;;;47.00;17.00;;;4.00;94.10;;;;;;5092514;28;20504;-76
2022/01/10 09:47:49;;;;;;;38.37;15.83;;;4.10;94.00;;;;;;5093139;28;20182;-75
2022/01/10 09:50:18;;;;;;;32.13;14.80;;;4.10;94.10;;;;;;5092424;28;20179;-74
2022/01/10 09:52:47;;;;;;;39.50;15.17;;;4.20;94.10;;;;;;5092572;28;20179;-76
2022/01/10 09:55:12;;;;;;;39.53;13.70;;;4.30;94.10;;;;;;5092641;28;20433;-75
2022/01/10 09:57:38;;;;;;;29.23;13.37;;;4.40;93.20;;;;;;5093516;28;20432;-75
2022/01/10 10:00:06;;;;;;;31.80;14.97;;;4.30;92.50;;;;;;5092233;28;20199;-75
2022/01/10 10:02:34;;;;;;;39.87;15.13;;;4.20;92.80;;;;;;5092253;28;20409;-75
2022/01/10 10:05:05;;;;;;;36.93;14.90;;;4.10;92.90;;;;;;5090725;28;20547;-74
2022/01/10 10:07:31;;;;;;;35.67;14.93;;;4.10;92.90;;;;;;5091042;28;20432;-75
2022/01/10 10:10:00;;;;;;;29.87;13.90;;;4.10;93.30;;;;;;5093769;28;20414;-75
2022/01/10 10:12:29;;;;;;;35.70;13.60;;;4.20;93.50;;;;;;5094836;28;20921;-76
2022/01/10 10:14:56;;;;;;;25.20;12.27;;;4.50;93.20;;;;;;5094286;28;20437;-75
2022/01/10 10:17:22;;;;;;;31.43;14.93;;;4.70;92.30;;;;;;5095099;28;20421;-76
2022/01/10 10:19:49;;;;;;;30.23;13.23;;;4.90;91.80;;;;;;5092605;28;20439;-75
2022/01/10 10:22:15;;;;;;;30.30;12.63;;;4.90;90.80;;;;;;5091439;28;20451;-74
2022/01/10 10:24:42;;;;;;;27.37;12.83;;;4.80;90.50;;;;;;5095590;28;20510;-77
2022/01/10 10:27:08;;;;;;;34.67;13.80;;;4.70;90.70;;;;;;5093428;28;20461;-75
2022/01/10 10:29:38;;;;;;;34.80;15.00;;;4.50;91.20;;;;;;5093158;28;20425;-76
2022/01/10 10:32:04;;;;;;;27.03;13.73;;;4.30;91.40;;;;;;5094852;28;20409;-76
2022/01/10 10:34:32;;;;;;;27.90;13.03;;;4.30;92.00;;;;;;5092628;28;20442;-76
2022/01/10 10:37:07;;;;;;;27.87;13.87;;;4.30;92.20;;;;;;5093999;28;20421;-76
2022/01/10 10:39:36;;;;;;;36.67;14.83;;;4.30;91.80;;;;;;5091111;28;20926;-74
2022/01/10 10:42:06;;;;;;;32.00;13.80;;;4.30;92.20;;;;;;5094173;28;20880;-74
2022/01/10 10:44:32;;;;;;;28.07;13.87;;;4.40;92.10;;;;;;5092143;28;20491;-76
2022/01/10 10:46:58;;;;;;;31.77;14.20;;;4.40;91.70;;;;;;5093394;28;20461;-75
2022/01/10 10:49:33;;;;;;;37.33;14.80;;;4.40;91.70;;;;;;5093764;28;20504;-76
2022/01/10 10:52:01;;;;;;;32.30;15.33;;;4.60;91.80;;;;;;5092452;28;20416;-73
2022/01/10 10:54:31;;;;;;;36.43;14.10;;;4.60;91.30;;;;;;5094778;28;20445;-74
2022/01/10 10:57:01;;;;;;;31.40;13.23;;;4.50;91.20;;;;;;5091681;28;20437;-75
2022/01/10 10:59:34;;;;;;;28.50;13.20;;;4.50;91.30;;;;;;5091824;28;20445;-76
2022/01/10 11:02:01;;;;;;;31.23;13.93;;;4.60;91.10;;;;;;5094543;28;20450;-75
2022/01/10 11:04:26;;;;;;;30.67;13.27;;;4.70;90.70;;;;;;5092557;28;20461;-75
2022/01/10 11:06:52;;;;;;;30.60;12.80;;;4.70;90.40;;;;;;5093864;28;21178;-76
2022/01/10 11:09:18;;;;;;;22.70;11.30;;;4.80;90.40;;;;;;5094477;28;20179;-75
2022/01/10 11:11:45;;;;;;;27.33;13.70;;;4.90;90.00;;;;;;5097930;28;20641;-74
2022/01/10 11:14:14;;;;;;;28.17;13.50;;;5.00;90.10;;;;;;5097534;28;20276;-75
2022/01/10 11:16:43;;;;;;;29.30;13.63;;;5.00;89.20;;;;;;5094655;28;20815;-75
2022/01/10 11:19:25;;;;;;;35.60;12.90;;;5.20;89.00;;;;;;5093945;28;20456;-76
2022/01/10 11:22:01;;;;;;;26.00;12.30;;;5.30;88.90;;;;;;5119247;27;20539;-73
2022/01/10 11:24:48;;;;;;;22.90;10.80;;;5.30;87.70;;;;;;5088813;28;20445;-75
2022/01/10 11:27:35;;;;;;;20.47;9.93;;;5.40;87.30;;;;;;5093688;28;20472;-74
2022/01/10 11:30:22;;;;;;;21.03;10.27;;;5.50;87.00;;;;;;5094600;28;20421;-76
2022/01/10 11:33:03;;;;;;;23.30;10.97;;;5.60;87.40;;;;;;5095480;28;20413;-76
2022/01/10 11:35:59;;;;;;;20.03;10.60;;;5.80;86.80;;;;;;5097706;28;20433;-76
2022/01/10 11:38:30;;;;;;;25.30;10.60;;;5.90;85.60;;;;;;5088369;28;20926;-75
2022/01/10 11:40:58;;;;;;;17.83;9.90;;;6.10;84.70;;;;;;5094371;28;20460;-77
2022/01/10 11:43:31;;;;;;;18.90;10.03;;;6.20;83.70;;;;;;5092315;28;20508;-75
2022/01/10 11:46:17;;;;;;;22.83;10.90;;;6.20;83.10;;;;;;5089476;28;20468;-75
2022/01/10 11:49:03;;;;;;;22.70;11.30;;;6.20;83.30;;;;;;5094142;28;20405;-76
2022/01/10 11:51:36;;;;;;;19.03;10.60;;;6.20;83.80;;;;;;5090532;28;20474;-75
2022/01/10 11:54:10;;;;;;;24.37;10.73;;;6.30;83.80;;;;;;5093283;28;20941;-74
2022/01/10 11:56:41;;;;;;;28.40;12.70;;;6.40;83.40;;;;;;5093209;28;20464;-76
2022/01/10 11:59:28;;;;;;;22.00;11.20;;;6.50;82.40;;;;;;5093053;28;20425;-75
2022/01/10 12:01:57;;;;;;;26.00;11.43;;;6.50;82.20;;;;;;5087505;28;20433;-76
2022/01/10 12:04:24;;;;;;;27.63;10.37;;;6.60;82.20;;;;;;5097183;28;20502;-76
2022/01/10 12:06:51;;;;;;;22.07;10.50;;;6.70;81.20;;;;;;5097466;28;20595;-76
2022/01/10 12:09:17;;;;;;;20.83;9.63;;;6.80;80.60;;;;;;5097100;28;20440;-77
2022/01/10 12:11:45;;;;;;;24.40;10.40;;;6.80;80.60;;;;;;5097322;28;20429;-76
2022/01/10 12:14:12;;;;;;;23.23;9.17;;;6.80;80.50;;;;;;5097162;28;20551;-74
2022/01/10 12:16:39;;;;;;;17.33;8.10;;;6.70;79.30;;;;;;5097799;28;20436;-75
2022/01/10 12:19:06;;;;;;;23.70;10.20;;;6.60;79.70;;;;;;5097354;28;20425;-75
2022/01/10 12:21:32;;;;;;;29.70;10.77;;;6.50;80.30;;;;;;5096461;28;20438;-74
2022/01/10 12:23:59;;;;;;;21.20;9.20;;;6.30;81.20;;;;;;5095819;28;20456;-74
2022/01/10 12:26:26;;;;;;;18.07;9.27;;;6.40;81.80;;;;;;5096367;28;20812;-76
2022/01/10 12:29:03;;;;;;;21.73;8.80;;;6.30;81.40;;;;;;5096636;28;20455;-75
2022/01/10 12:31:30;;;;;;;26.27;9.93;;;6.20;81.80;;;;;;5096979;28;20417;-74
2022/01/10 12:33:58;;;;;;;20.83;10.73;;;6.10;82.50;;;;;;5096696;28;20425;-75
2022/01/10 12:36:25;;;;;;;21.70;10.87;;;6.10;83.40;;;;;;5096418;28;20425;-75
2022/01/10 12:38:54;;;;;;;27.80;11.53;;;6.00;83.80;;;;;;5094871;28;20481;-75
2022/01/10 12:41:21;;;;;;;25.27;10.87;;;6.10;83.80;;;;;;5094874;28;20547;-75
2022/01/10 12:43:48;;;;;;;29.87;14.77;;;6.10;84.00;;;;;;5095830;28;20425;-75
2022/01/10 12:46:16;;;;;;;27.43;13.10;;;5.90;84.60;;;;;;5096007;28;20496;-74
2022/01/10 12:48:43;;;;;;;25.03;12.03;;;5.80;85.20;;;;;;5095308;28;20432;-76
2022/01/10 12:51:10;;;;;;;25.00;10.80;;;5.80;85.30;;;;;;5096378;28;20412;-75
2022/01/10 12:53:36;;;;;;;29.23;11.80;;;5.80;85.50;;;;;;5095619;28;20424;-75